createdAt,value
2022-08-09T05:40:16.750Z,509
2022-08-09T05:45:55.863Z,452
2022-08-09T05:51:42.332Z,435
2022-08-09T05:56:54.844Z,434
2022-08-09T06:02:19.041Z,441
2022-08-09T06:08:05.034Z,438
2022-08-09T06:13:20.540Z,435
2022-08-09T06:18:49.834Z,440
2022-08-09T06:24:20.419Z,436
2022-08-09T06:30:04.479Z,437
2022-08-09T06:35:21.704Z,438
2022-08-09T06:40:54.885Z,442
2022-08-09T06:46:39.871Z,450
2022-08-09T06:51:53.528Z,455
2022-08-09T06:57:25.851Z,455
2022-08-09T07:02:55.317Z,446
2022-08-09T07:08:24.943Z,432
2022-08-09T07:14:05.482Z,433
2022-08-09T07:19:26.128Z,432
2022-08-09T07:24:56.689Z,430
2022-08-09T07:30:32.415Z,433
2022-08-09T07:35:58.172Z,433
2022-08-09T07:41:32.897Z,444
2022-08-09T07:46:59.073Z,456
2022-08-09T07:52:29.672Z,463
2022-08-09T07:58:00.406Z,475
2022-08-09T08:03:31.010Z,486
2022-08-09T08:09:05.357Z,483
2022-08-09T08:14:32.262Z,479
2022-08-09T08:20:02.861Z,458
2022-08-09T08:25:43.984Z,432
2022-08-09T08:31:13.716Z,429
2022-08-09T08:36:34.572Z,434
2022-08-09T08:42:05.453Z,432
2022-08-09T08:47:38.554Z,429
2022-08-09T08:53:06.659Z,434
2022-08-09T08:58:37.601Z,447
2022-08-09T09:04:08.209Z,475
2022-08-09T09:09:58.148Z,475
2022-08-09T09:15:09.902Z,469
2022-08-09T09:20:39.602Z,471
2022-08-09T09:26:12.132Z,473
2022-08-09T09:32:06.752Z,471
2022-08-09T09:37:13.061Z,468
2022-08-09T09:42:45.983Z,459
2022-08-09T09:48:12.844Z,454
2022-08-09T09:54:00.993Z,456
2022-08-09T09:59:16.126Z,458
2022-08-09T10:04:44.351Z,461
2022-08-09T10:10:14.967Z,455
2022-08-09T10:16:08.904Z,455
2022-08-09T10:21:16.171Z,458
2022-08-09T10:26:46.908Z,452
2022-08-09T10:32:38.759Z,458
2022-08-09T10:37:48.482Z,448
2022-08-09T10:43:18.642Z,445
2022-08-09T10:48:52.298Z,443
2022-08-09T10:54:20.536Z,450
2022-08-09T10:59:57.360Z,444
2022-08-09T11:05:25.488Z,443
2022-08-09T11:10:54.841Z,440
2022-08-09T11:16:35.137Z,447
2022-08-09T11:21:55.278Z,444
2022-08-09T11:27:52.798Z,443
2022-08-09T11:32:54.620Z,438
2022-08-09T11:38:28.509Z,442
2022-08-09T11:43:55.838Z,440
2022-08-09T11:49:28.325Z,439
2022-08-09T11:54:57.051Z,433
2022-08-09T12:00:28.080Z,438
2022-08-09T12:05:57.774Z,436
2022-08-09T12:11:28.724Z,433
2022-08-09T12:16:59.539Z,433
2022-08-09T12:22:30.573Z,435
2022-08-09T12:29:14.401Z,438
2022-08-09T12:33:51.083Z,427
2022-08-09T12:39:04.304Z,425
2022-08-09T12:44:37.483Z,400
2022-08-09T12:50:03.173Z,400
2022-08-09T12:56:15.442Z,404
2022-08-09T13:01:05.147Z,402
2022-08-09T13:06:35.938Z,397
2022-08-09T13:12:06.755Z,405
2022-08-09T13:18:03.779Z,403
2022-08-09T13:24:16.694Z,401
2022-08-09T13:28:39.599Z,400
2022-08-09T13:34:08.201Z,401
2022-08-09T13:41:55.683Z,400
2022-08-09T13:45:12.321Z,403
2022-08-09T13:50:39.969Z,401
2022-08-09T13:56:12.028Z,398
2022-08-09T14:02:01.269Z,402
2022-08-09T14:07:12.355Z,403
2022-08-09T14:12:42.445Z,401
2022-08-09T14:18:27.406Z,403
2022-08-09T14:23:53.602Z,404
2022-08-09T14:30:04.393Z,410
